sensor_id;sensor_type;location;lat;lon;timestamp;P1;P2;P0
43280;PMS5003;62175;49.416;8.690;2023-12-20T00:01:54;16;16;
43280;PMS5003;62175;49.416;8.690;2023-12-20T00:04:20;18;17;
43280;PMS5003;62175;49.416;8.690;2023-12-20T00:06:48;17;16;
43280;PMS5003;62175;49.416;8.690;2023-12-20T00:09:15;16;16;
43280;PMS5003;62175;49.416;8.690;2023-12-20T00:11:42;18;18;
43280;PMS5003;62175;49.416;8.690;2023-12-20T00:14:10;21;18;
43280;PMS5003;62175;49.416;8.690;2023-12-20T00:16:37;16;16;
43280;PMS5003;62175;49.416;8.690;2023-12-20T00:19:04;18;18;
43280;PMS5003;62175;49.416;8.690;2023-12-20T00:21:31;19;17;
43280;PMS5003;62175;49.416;8.690;2023-12-20T00:23:58;18;18;
43280;PMS5003;62175;49.416;8.690;2023-12-20T00:26:25;17;16;
43280;PMS5003;62175;49.416;8.690;2023-12-20T00:28:52;17;16;
43280;PMS5003;62175;49.416;8.690;2023-12-20T00:31:19;17;16;
43280;PMS5003;62175;49.416;8.690;2023-12-20T00:33:47;16;16;
43280;PMS5003;62175;49.416;8.690;2023-12-20T00:36:14;20;17;
43280;PMS5003;62175;49.416;8.690;2023-12-20T00:38:41;15;15;
43280;PMS5003;62175;49.416;8.690;2023-12-20T00:41:08;15;15;
43280;PMS5003;62175;49.416;8.690;2023-12-20T00:43:36;13;13;
43280;PMS5003;62175;49.416;8.690;2023-12-20T00:46:03;17;15;
43280;PMS5003;62175;49.416;8.690;2023-12-20T00:48:30;18;15;
43280;PMS5003;62175;49.416;8.690;2023-12-20T00:50:57;14;14;
43280;PMS5003;62175;49.416;8.690;2023-12-20T00:53:24;14;13;
43280;PMS5003;62175;49.416;8.690;2023-12-20T00:55:51;17;16;
43280;PMS5003;62175;49.416;8.690;2023-12-20T00:58:18;17;15;
43280;PMS5003;62175;49.416;8.690;2023-12-20T01:00:45;17;16;
43280;PMS5003;62175;49.416;8.690;2023-12-20T01:03:13;17;16;
43280;PMS5003;62175;49.416;8.690;2023-12-20T01:05:40;16;14;
43280;PMS5003;62175;49.416;8.690;2023-12-20T01:08:07;16;16;
43280;PMS5003;62175;49.416;8.690;2023-12-20T01:10:34;18;16;
43280;PMS5003;62175;49.416;8.690;2023-12-20T01:13:01;16;16;
43280;PMS5003;62175;49.416;8.690;2023-12-20T01:15:29;14;13;
43280;PMS5003;62175;49.416;8.690;2023-12-20T01:17:56;15;14;
43280;PMS5003;62175;49.416;8.690;2023-12-20T01:20:23;14;13;
43280;PMS5003;62175;49.416;8.690;2023-12-20T01:22:50;15;14;
43280;PMS5003;62175;49.416;8.690;2023-12-20T01:25:17;15;13;
43280;PMS5003;62175;49.416;8.690;2023-12-20T01:27:44;16;15;
43280;PMS5003;62175;49.416;8.690;2023-12-20T01:30:12;18;15;
43280;PMS5003;62175;49.416;8.690;2023-12-20T01:32:40;18;15;
43280;PMS5003;62175;49.416;8.690;2023-12-20T01:35:07;20;17;
43280;PMS5003;62175;49.416;8.690;2023-12-20T01:37:34;16;16;
43280;PMS5003;62175;49.416;8.690;2023-12-20T01:40:01;14;13;
43280;PMS5003;62175;49.416;8.690;2023-12-20T01:42:29;14;14;
43280;PMS5003;62175;49.416;8.690;2023-12-20T01:44:56;14;12;
43280;PMS5003;62175;49.416;8.690;2023-12-20T01:47:23;16;13;
43280;PMS5003;62175;49.416;8.690;2023-12-20T01:49:50;15;15;
43280;PMS5003;62175;49.416;8.690;2023-12-20T01:52:17;12;10;
43280;PMS5003;62175;49.416;8.690;2023-12-20T01:54:45;13;13;
43280;PMS5003;62175;49.416;8.690;2023-12-20T01:57:13;19;19;
43280;PMS5003;62175;49.416;8.690;2023-12-20T01:59:41;14;12;
43280;PMS5003;62175;49.416;8.690;2023-12-20T02:02:08;15;15;
43280;PMS5003;62175;49.416;8.690;2023-12-20T02:04:35;15;13;
43280;PMS5003;62175;49.416;8.690;2023-12-20T02:07:03;13;11;
43280;PMS5003;62175;49.416;8.690;2023-12-20T02:09:30;12;11;
43280;PMS5003;62175;49.416;8.690;2023-12-20T02:11:58;19;18;
43280;PMS5003;62175;49.416;8.690;2023-12-20T02:14:25;14;14;
43280;PMS5003;62175;49.416;8.690;2023-12-20T02:16:52;15;14;
43280;PMS5003;62175;49.416;8.690;2023-12-20T02:19:20;17;15;
43280;PMS5003;62175;49.416;8.690;2023-12-20T02:21:47;17;15;
43280;PMS5003;62175;49.416;8.690;2023-12-20T02:24:13;16;14;
43280;PMS5003;62175;49.416;8.690;2023-12-20T02:26:41;11;10;
43280;PMS5003;62175;49.416;8.690;2023-12-20T02:29:08;16;13;
43280;PMS5003;62175;49.416;8.690;2023-12-20T02:31:35;15;14;
43280;PMS5003;62175;49.416;8.690;2023-12-20T02:34:03;14;12;
43280;PMS5003;62175;49.416;8.690;2023-12-20T02:36:30;14;12;
43280;PMS5003;62175;49.416;8.690;2023-12-20T02:38:57;13;11;
43280;PMS5003;62175;49.416;8.690;2023-12-20T02:41:24;12;11;
43280;PMS5003;62175;49.416;8.690;2023-12-20T02:43:51;13;12;
43280;PMS5003;62175;49.416;8.690;2023-12-20T02:46:18;15;14;
43280;PMS5003;62175;49.416;8.690;2023-12-20T02:48:45;14;13;
43280;PMS5003;62175;49.416;8.690;2023-12-20T02:51:13;13;11;
43280;PMS5003;62175;49.416;8.690;2023-12-20T02:53:40;11;11;
43280;PMS5003;62175;49.416;8.690;2023-12-20T02:56:07;14;12;
43280;PMS5003;62175;49.416;8.690;2023-12-20T02:58:34;11;10;
43280;PMS5003;62175;49.416;8.690;2023-12-20T03:01:01;19;16;
43280;PMS5003;62175;49.416;8.690;2023-12-20T03:03:28;12;11;
43280;PMS5003;62175;49.416;8.690;2023-12-20T03:05:56;16;12;
43280;PMS5003;62175;49.416;8.690;2023-12-20T03:08:23;14;14;
43280;PMS5003;62175;49.416;8.690;2023-12-20T03:10:50;14;13;
43280;PMS5003;62175;49.416;8.690;2023-12-20T03:13:17;15;14;
43280;PMS5003;62175;49.416;8.690;2023-12-20T03:15:45;14;12;
43280;PMS5003;62175;49.416;8.690;2023-12-20T03:18:12;12;11;
43280;PMS5003;62175;49.416;8.690;2023-12-20T03:20:39;13;12;
43280;PMS5003;62175;49.416;8.690;2023-12-20T03:23:07;13;13;
43280;PMS5003;62175;49.416;8.690;2023-12-20T03:25:34;14;12;
43280;PMS5003;62175;49.416;8.690;2023-12-20T03:28:01;15;11;
43280;PMS5003;62175;49.416;8.690;2023-12-20T03:30:29;13;12;
43280;PMS5003;62175;49.416;8.690;2023-12-20T03:32:59;11;10;
43280;PMS5003;62175;49.416;8.690;2023-12-20T03:35:26;14;13;
43280;PMS5003;62175;49.416;8.690;2023-12-20T03:37:53;13;12;
43280;PMS5003;62175;49.416;8.690;2023-12-20T03:40:21;12;12;
43280;PMS5003;62175;49.416;8.690;2023-12-20T03:42:48;12;11;
43280;PMS5003;62175;49.416;8.690;2023-12-20T03:45:15;11;11;
43280;PMS5003;62175;49.416;8.690;2023-12-20T03:47:42;12;12;
43280;PMS5003;62175;49.416;8.690;2023-12-20T03:50:10;12;10;
43280;PMS5003;62175;49.416;8.690;2023-12-20T03:52:37;13;11;
43280;PMS5003;62175;49.416;8.690;2023-12-20T03:55:05;13;13;
43280;PMS5003;62175;49.416;8.690;2023-12-20T03:57:32;14;14;
43280;PMS5003;62175;49.416;8.690;2023-12-20T03:59:59;12;10;
43280;PMS5003;62175;49.416;8.690;2023-12-20T04:02:27;11;10;
43280;PMS5003;62175;49.416;8.690;2023-12-20T04:04:54;10;9;
43280;PMS5003;62175;49.416;8.690;2023-12-20T04:07:21;10;10;
43280;PMS5003;62175;49.416;8.690;2023-12-20T04:09:48;11;10;
43280;PMS5003;62175;49.416;8.690;2023-12-20T04:12:15;11;10;
43280;PMS5003;62175;49.416;8.690;2023-12-20T04:14:43;8;8;
43280;PMS5003;62175;49.416;8.690;2023-12-20T04:17:10;12;12;
43280;PMS5003;62175;49.416;8.690;2023-12-20T04:19:37;11;11;
43280;PMS5003;62175;49.416;8.690;2023-12-20T04:22:04;12;11;
43280;PMS5003;62175;49.416;8.690;2023-12-20T04:24:32;10;10;
43280;PMS5003;62175;49.416;8.690;2023-12-20T04:26:59;13;12;
43280;PMS5003;62175;49.416;8.690;2023-12-20T04:29:26;11;10;
43280;PMS5003;62175;49.416;8.690;2023-12-20T04:31:53;12;11;
43280;PMS5003;62175;49.416;8.690;2023-12-20T04:34:22;12;12;
43280;PMS5003;62175;49.416;8.690;2023-12-20T04:36:49;10;9;
43280;PMS5003;62175;49.416;8.690;2023-12-20T04:39:16;11;11;
43280;PMS5003;62175;49.416;8.690;2023-12-20T04:41:44;12;11;
43280;PMS5003;62175;49.416;8.690;2023-12-20T04:44:11;11;11;
43280;PMS5003;62175;49.416;8.690;2023-12-20T04:46:38;9;9;
43280;PMS5003;62175;49.416;8.690;2023-12-20T04:49:05;11;10;
43280;PMS5003;62175;49.416;8.690;2023-12-20T04:51:33;10;10;
43280;PMS5003;62175;49.416;8.690;2023-12-20T04:54:00;11;10;
43280;PMS5003;62175;49.416;8.690;2023-12-20T04:56:27;10;9;
43280;PMS5003;62175;49.416;8.690;2023-12-20T04:58:55;10;10;
43280;PMS5003;62175;49.416;8.690;2023-12-20T05:01:22;11;11;
43280;PMS5003;62175;49.416;8.690;2023-12-20T05:03:49;13;12;
43280;PMS5003;62175;49.416;8.690;2023-12-20T05:06:17;10;9;
43280;PMS5003;62175;49.416;8.690;2023-12-20T05:08:44;10;9;
43280;PMS5003;62175;49.416;8.690;2023-12-20T05:11:11;10;9;
43280;PMS5003;62175;49.416;8.690;2023-12-20T05:13:39;10;9;
43280;PMS5003;62175;49.416;8.690;2023-12-20T05:16:06;10;10;
43280;PMS5003;62175;49.416;8.690;2023-12-20T05:18:33;10;9;
43280;PMS5003;62175;49.416;8.690;2023-12-20T05:21:01;11;10;
43280;PMS5003;62175;49.416;8.690;2023-12-20T05:23:28;11;9;
43280;PMS5003;62175;49.416;8.690;2023-12-20T05:25:55;9;9;
43280;PMS5003;62175;49.416;8.690;2023-12-20T05:28:23;10;8;
43280;PMS5003;62175;49.416;8.690;2023-12-20T05:30:50;9;9;
43280;PMS5003;62175;49.416;8.690;2023-12-20T05:33:18;11;10;
43280;PMS5003;62175;49.416;8.690;2023-12-20T05:35:45;12;12;
43280;PMS5003;62175;49.416;8.690;2023-12-20T05:38:12;11;10;
43280;PMS5003;62175;49.416;8.690;2023-12-20T05:40:39;10;10;
43280;PMS5003;62175;49.416;8.690;2023-12-20T05:43:07;9;9;
43280;PMS5003;62175;49.416;8.690;2023-12-20T05:45:34;10;10;
43280;PMS5003;62175;49.416;8.690;2023-12-20T05:48:01;10;10;
43280;PMS5003;62175;49.416;8.690;2023-12-20T05:50:28;10;10;
43280;PMS5003;62175;49.416;8.690;2023-12-20T05:52:56;8;8;
43280;PMS5003;62175;49.416;8.690;2023-12-20T05:55:23;9;8;
43280;PMS5003;62175;49.416;8.690;2023-12-20T05:57:51;12;11;
43280;PMS5003;62175;49.416;8.690;2023-12-20T06:00:18;10;10;
43280;PMS5003;62175;49.416;8.690;2023-12-20T06:02:45;11;11;
43280;PMS5003;62175;49.416;8.690;2023-12-20T06:05:12;13;13;
43280;PMS5003;62175;49.416;8.690;2023-12-20T06:07:40;10;10;
43280;PMS5003;62175;49.416;8.690;2023-12-20T06:10:07;11;11;
43280;PMS5003;62175;49.416;8.690;2023-12-20T06:12:34;13;12;
43280;PMS5003;62175;49.416;8.690;2023-12-20T06:15:02;11;10;
43280;PMS5003;62175;49.416;8.690;2023-12-20T06:17:29;14;14;
43280;PMS5003;62175;49.416;8.690;2023-12-20T06:19:56;11;11;
43280;PMS5003;62175;49.416;8.690;2023-12-20T06:22:24;16;15;
43280;PMS5003;62175;49.416;8.690;2023-12-20T06:24:51;12;12;
43280;PMS5003;62175;49.416;8.690;2023-12-20T06:27:18;10;9;
43280;PMS5003;62175;49.416;8.690;2023-12-20T06:29:46;11;10;
43280;PMS5003;62175;49.416;8.690;2023-12-20T06:32:13;12;11;
43280;PMS5003;62175;49.416;8.690;2023-12-20T06:34:40;11;11;
43280;PMS5003;62175;49.416;8.690;2023-12-20T06:37:08;9;9;
43280;PMS5003;62175;49.416;8.690;2023-12-20T06:39:35;10;10;
43280;PMS5003;62175;49.416;8.690;2023-12-20T06:42:02;11;11;
43280;PMS5003;62175;49.416;8.690;2023-12-20T06:44:30;11;10;
43280;PMS5003;62175;49.416;8.690;2023-12-20T06:46:57;12;11;
43280;PMS5003;62175;49.416;8.690;2023-12-20T06:49:25;13;12;
43280;PMS5003;62175;49.416;8.690;2023-12-20T06:51:52;11;10;
43280;PMS5003;62175;49.416;8.690;2023-12-20T06:54:19;9;9;
43280;PMS5003;62175;49.416;8.690;2023-12-20T06:56:47;11;10;
43280;PMS5003;62175;49.416;8.690;2023-12-20T06:59:14;8;8;
43280;PMS5003;62175;49.416;8.690;2023-12-20T07:01:41;10;9;
43280;PMS5003;62175;49.416;8.690;2023-12-20T07:04:09;8;8;
43280;PMS5003;62175;49.416;8.690;2023-12-20T07:06:36;8;8;
43280;PMS5003;62175;49.416;8.690;2023-12-20T07:09:03;11;10;
43280;PMS5003;62175;49.416;8.690;2023-12-20T07:11:31;8;8;
43280;PMS5003;62175;49.416;8.690;2023-12-20T07:13:58;8;7;
43280;PMS5003;62175;49.416;8.690;2023-12-20T07:16:25;9;8;
43280;PMS5003;62175;49.416;8.690;2023-12-20T07:18:53;6;6;
43280;PMS5003;62175;49.416;8.690;2023-12-20T07:21:20;7;7;
43280;PMS5003;62175;49.416;8.690;2023-12-20T07:23:47;8;8;
43280;PMS5003;62175;49.416;8.690;2023-12-20T07:26:15;8;8;
43280;PMS5003;62175;49.416;8.690;2023-12-20T07:28:42;9;8;
43280;PMS5003;62175;49.416;8.690;2023-12-20T07:31:09;9;8;
43280;PMS5003;62175;49.416;8.690;2023-12-20T07:33:37;9;8;
43280;PMS5003;62175;49.416;8.690;2023-12-20T07:36:04;14;12;
43280;PMS5003;62175;49.416;8.690;2023-12-20T07:38:31;11;9;
43280;PMS5003;62175;49.416;8.690;2023-12-20T07:40:58;10;10;
43280;PMS5003;62175;49.416;8.690;2023-12-20T07:43:26;10;10;
43280;PMS5003;62175;49.416;8.690;2023-12-20T07:45:53;9;9;
43280;PMS5003;62175;49.416;8.690;2023-12-20T07:48:20;10;8;
43280;PMS5003;62175;49.416;8.690;2023-12-20T07:50:48;10;9;
43280;PMS5003;62175;49.416;8.690;2023-12-20T07:53:15;8;8;
43280;PMS5003;62175;49.416;8.690;2023-12-20T07:55:42;11;11;
43280;PMS5003;62175;49.416;8.690;2023-12-20T07:58:09;10;8;
43280;PMS5003;62175;49.416;8.690;2023-12-20T08:00:37;10;9;
43280;PMS5003;62175;49.416;8.690;2023-12-20T08:03:04;13;9;
43280;PMS5003;62175;49.416;8.690;2023-12-20T08:05:31;7;7;
43280;PMS5003;62175;49.416;8.690;2023-12-20T08:07:59;7;6;
43280;PMS5003;62175;49.416;8.690;2023-12-20T08:10:26;7;7;
43280;PMS5003;62175;49.416;8.690;2023-12-20T08:12:53;7;7;
43280;PMS5003;62175;49.416;8.690;2023-12-20T08:15:20;9;8;
43280;PMS5003;62175;49.416;8.690;2023-12-20T08:17:48;8;8;
43280;PMS5003;62175;49.416;8.690;2023-12-20T08:20:15;7;7;
43280;PMS5003;62175;49.416;8.690;2023-12-20T08:22:42;8;8;
43280;PMS5003;62175;49.416;8.690;2023-12-20T08:25:10;7;6;
43280;PMS5003;62175;49.416;8.690;2023-12-20T08:27:39;9;8;
43280;PMS5003;62175;49.416;8.690;2023-12-20T08:30:08;9;8;
43280;PMS5003;62175;49.416;8.690;2023-12-20T08:32:35;8;8;
43280;PMS5003;62175;49.416;8.690;2023-12-20T08:35:03;12;10;
43280;PMS5003;62175;49.416;8.690;2023-12-20T08:37:31;10;9;
43280;PMS5003;62175;49.416;8.690;2023-12-20T08:39:58;14;12;
43280;PMS5003;62175;49.416;8.690;2023-12-20T08:42:25;15;14;
43280;PMS5003;62175;49.416;8.690;2023-12-20T08:44:53;13;12;
43280;PMS5003;62175;49.416;8.690;2023-12-20T08:47:20;13;11;
43280;PMS5003;62175;49.416;8.690;2023-12-20T08:49:47;17;14;
43280;PMS5003;62175;49.416;8.690;2023-12-20T08:52:14;13;12;
43280;PMS5003;62175;49.416;8.690;2023-12-20T08:54:41;13;12;
43280;PMS5003;62175;49.416;8.690;2023-12-20T08:57:08;10;10;
43280;PMS5003;62175;49.416;8.690;2023-12-20T08:59:35;12;11;
43280;PMS5003;62175;49.416;8.690;2023-12-20T09:02:02;13;11;
43280;PMS5003;62175;49.416;8.690;2023-12-20T09:04:30;10;10;
43280;PMS5003;62175;49.416;8.690;2023-12-20T09:06:59;11;11;
43280;PMS5003;62175;49.416;8.690;2023-12-20T09:09:26;9;8;
43280;PMS5003;62175;49.416;8.690;2023-12-20T09:11:53;9;9;
43280;PMS5003;62175;49.416;8.690;2023-12-20T09:14:20;8;8;
43280;PMS5003;62175;49.416;8.690;2023-12-20T09:16:47;9;8;
43280;PMS5003;62175;49.416;8.690;2023-12-20T09:19:15;12;9;
43280;PMS5003;62175;49.416;8.690;2023-12-20T09:21:42;9;9;
43280;PMS5003;62175;49.416;8.690;2023-12-20T09:24:09;10;9;
43280;PMS5003;62175;49.416;8.690;2023-12-20T09:26:37;9;9;
43280;PMS5003;62175;49.416;8.690;2023-12-20T09:29:04;10;9;
43280;PMS5003;62175;49.416;8.690;2023-12-20T09:31:31;8;7;
43280;PMS5003;62175;49.416;8.690;2023-12-20T09:33:59;9;8;
43280;PMS5003;62175;49.416;8.690;2023-12-20T09:36:26;7;7;
43280;PMS5003;62175;49.416;8.690;2023-12-20T09:38:53;12;10;
43280;PMS5003;62175;49.416;8.690;2023-12-20T09:41:20;9;8;
43280;PMS5003;62175;49.416;8.690;2023-12-20T09:43:49;9;9;
43280;PMS5003;62175;49.416;8.690;2023-12-20T09:46:20;11;9;
43280;PMS5003;62175;49.416;8.690;2023-12-20T09:48:53;10;10;
43280;PMS5003;62175;49.416;8.690;2023-12-20T09:51:20;10;7;
43280;PMS5003;62175;49.416;8.690;2023-12-20T09:53:48;9;9;
43280;PMS5003;62175;49.416;8.690;2023-12-20T09:56:16;7;7;
43280;PMS5003;62175;49.416;8.690;2023-12-20T09:58:43;7;7;
43280;PMS5003;62175;49.416;8.690;2023-12-20T10:01:11;6;5;
43280;PMS5003;62175;49.416;8.690;2023-12-20T10:03:38;8;7;
43280;PMS5003;62175;49.416;8.690;2023-12-20T10:06:07;5;5;
43280;PMS5003;62175;49.416;8.690;2023-12-20T10:08:34;7;6;
43280;PMS5003;62175;49.416;8.690;2023-12-20T10:11:02;5;5;
43280;PMS5003;62175;49.416;8.690;2023-12-20T10:13:29;5;5;
43280;PMS5003;62175;49.416;8.690;2023-12-20T10:15:56;5;5;
43280;PMS5003;62175;49.416;8.690;2023-12-20T10:18:24;4;4;
43280;PMS5003;62175;49.416;8.690;2023-12-20T10:20:51;3;3;
43280;PMS5003;62175;49.416;8.690;2023-12-20T10:23:19;5;5;
43280;PMS5003;62175;49.416;8.690;2023-12-20T10:25:55;8;5;
43280;PMS5003;62175;49.416;8.690;2023-12-20T10:28:23;4;4;
43280;PMS5003;62175;49.416;8.690;2023-12-20T10:30:50;6;5;
43280;PMS5003;62175;49.416;8.690;2023-12-20T10:33:23;7;5;
43280;PMS5003;62175;49.416;8.690;2023-12-20T10:35:51;5;4;
43280;PMS5003;62175;49.416;8.690;2023-12-20T10:38:19;5;5;
43280;PMS5003;62175;49.416;8.690;2023-12-20T10:40:46;3;2;
43280;PMS5003;62175;49.416;8.690;2023-12-20T10:43:13;5;4;
43280;PMS5003;62175;49.416;8.690;2023-12-20T10:45:42;5;5;
43280;PMS5003;62175;49.416;8.690;2023-12-20T10:48:10;3;3;
43280;PMS5003;62175;49.416;8.690;2023-12-20T10:50:38;4;3;
43280;PMS5003;62175;49.416;8.690;2023-12-20T10:53:05;6;6;
43280;PMS5003;62175;49.416;8.690;2023-12-20T10:55:32;3;3;
43280;PMS5003;62175;49.416;8.690;2023-12-20T10:58:00;6;5;
43280;PMS5003;62175;49.416;8.690;2023-12-20T11:00:28;3;3;
43280;PMS5003;62175;49.416;8.690;2023-12-20T11:02:57;4;4;
43280;PMS5003;62175;49.416;8.690;2023-12-20T11:05:29;5;3;
43280;PMS5003;62175;49.416;8.690;2023-12-20T11:08:01;4;3;
43280;PMS5003;62175;49.416;8.690;2023-12-20T11:10:36;4;4;
43280;PMS5003;62175;49.416;8.690;2023-12-20T11:13:12;6;5;
43280;PMS5003;62175;49.416;8.690;2023-12-20T11:15:47;2;2;
43280;PMS5003;62175;49.416;8.690;2023-12-20T11:18:14;6;4;
43280;PMS5003;62175;49.416;8.690;2023-12-20T11:20:41;4;3;
43280;PMS5003;62175;49.416;8.690;2023-12-20T11:23:09;4;4;
43280;PMS5003;62175;49.416;8.690;2023-12-20T11:25:46;7;6;
43280;PMS5003;62175;49.416;8.690;2023-12-20T11:28:14;5;4;
43280;PMS5003;62175;49.416;8.690;2023-12-20T11:30:41;6;6;
43280;PMS5003;62175;49.416;8.690;2023-12-20T11:33:12;4;4;
43280;PMS5003;62175;49.416;8.690;2023-12-20T11:35:41;4;4;
43280;PMS5003;62175;49.416;8.690;2023-12-20T11:38:08;6;5;
43280;PMS5003;62175;49.416;8.690;2023-12-20T11:40:35;7;5;
43280;PMS5003;62175;49.416;8.690;2023-12-20T11:43:03;7;6;
43280;PMS5003;62175;49.416;8.690;2023-12-20T11:45:30;4;4;
43280;PMS5003;62175;49.416;8.690;2023-12-20T11:47:58;6;5;
43280;PMS5003;62175;49.416;8.690;2023-12-20T11:50:25;6;6;
43280;PMS5003;62175;49.416;8.690;2023-12-20T11:52:52;5;5;
43280;PMS5003;62175;49.416;8.690;2023-12-20T11:55:19;4;4;
43280;PMS5003;62175;49.416;8.690;2023-12-20T11:57:47;5;4;
43280;PMS5003;62175;49.416;8.690;2023-12-20T12:00:14;5;5;
43280;PMS5003;62175;49.416;8.690;2023-12-20T12:02:43;6;5;
43280;PMS5003;62175;49.416;8.690;2023-12-20T12:05:10;4;4;
43280;PMS5003;62175;49.416;8.690;2023-12-20T12:07:37;4;4;
43280;PMS5003;62175;49.416;8.690;2023-12-20T12:10:05;7;6;
43280;PMS5003;62175;49.416;8.690;2023-12-20T12:12:32;5;5;
43280;PMS5003;62175;49.416;8.690;2023-12-20T12:15:00;6;6;
43280;PMS5003;62175;49.416;8.690;2023-12-20T12:17:27;7;6;
43280;PMS5003;62175;49.416;8.690;2023-12-20T12:20:01;5;5;
43280;PMS5003;62175;49.416;8.690;2023-12-20T12:22:29;7;6;
43280;PMS5003;62175;49.416;8.690;2023-12-20T12:24:58;6;6;
43280;PMS5003;62175;49.416;8.690;2023-12-20T12:27:35;4;4;
43280;PMS5003;62175;49.416;8.690;2023-12-20T12:30:03;8;8;
43280;PMS5003;62175;49.416;8.690;2023-12-20T12:32:31;6;6;
43280;PMS5003;62175;49.416;8.690;2023-12-20T12:34:58;7;7;
43280;PMS5003;62175;49.416;8.690;2023-12-20T12:37:26;7;6;
43280;PMS5003;62175;49.416;8.690;2023-12-20T12:39:53;10;6;
43280;PMS5003;62175;49.416;8.690;2023-12-20T12:42:20;5;5;
43280;PMS5003;62175;49.416;8.690;2023-12-20T12:44:47;7;7;
43280;PMS5003;62175;49.416;8.690;2023-12-20T12:47:14;10;9;
43280;PMS5003;62175;49.416;8.690;2023-12-20T12:49:42;7;6;
43280;PMS5003;62175;49.416;8.690;2023-12-20T12:52:09;6;6;
43280;PMS5003;62175;49.416;8.690;2023-12-20T12:54:36;5;5;
43280;PMS5003;62175;49.416;8.690;2023-12-20T12:57:04;10;9;
43280;PMS5003;62175;49.416;8.690;2023-12-20T12:59:31;6;6;
43280;PMS5003;62175;49.416;8.690;2023-12-20T13:01:58;7;7;
43280;PMS5003;62175;49.416;8.690;2023-12-20T13:04:25;7;6;
43280;PMS5003;62175;49.416;8.690;2023-12-20T13:06:53;6;6;
43280;PMS5003;62175;49.416;8.690;2023-12-20T13:09:20;7;7;
43280;PMS5003;62175;49.416;8.690;2023-12-20T13:11:47;5;5;
43280;PMS5003;62175;49.416;8.690;2023-12-20T13:14:14;7;7;
43280;PMS5003;62175;49.416;8.690;2023-12-20T13:16:42;7;6;
43280;PMS5003;62175;49.416;8.690;2023-12-20T13:19:09;7;7;
43280;PMS5003;62175;49.416;8.690;2023-12-20T13:21:36;6;6;
43280;PMS5003;62175;49.416;8.690;2023-12-20T13:24:04;6;6;
43280;PMS5003;62175;49.416;8.690;2023-12-20T13:26:31;6;5;
43280;PMS5003;62175;49.416;8.690;2023-12-20T13:28:58;7;6;
43280;PMS5003;62175;49.416;8.690;2023-12-20T13:31:25;7;7;
43280;PMS5003;62175;49.416;8.690;2023-12-20T13:33:53;6;6;
43280;PMS5003;62175;49.416;8.690;2023-12-20T13:36:20;7;7;
43280;PMS5003;62175;49.416;8.690;2023-12-20T13:38:47;6;6;
43280;PMS5003;62175;49.416;8.690;2023-12-20T13:41:15;5;4;
43280;PMS5003;62175;49.416;8.690;2023-12-20T13:43:44;8;6;
43280;PMS5003;62175;49.416;8.690;2023-12-20T13:46:12;6;6;
43280;PMS5003;62175;49.416;8.690;2023-12-20T13:48:39;6;5;
43280;PMS5003;62175;49.416;8.690;2023-12-20T13:51:06;7;6;
43280;PMS5003;62175;49.416;8.690;2023-12-20T13:53:35;8;6;
43280;PMS5003;62175;49.416;8.690;2023-12-20T13:56:02;8;7;
43280;PMS5003;62175;49.416;8.690;2023-12-20T13:58:32;7;7;
43280;PMS5003;62175;49.416;8.690;2023-12-20T14:00:58;7;7;
43280;PMS5003;62175;49.416;8.690;2023-12-20T14:03:26;7;7;
43280;PMS5003;62175;49.416;8.690;2023-12-20T14:05:53;8;7;
43280;PMS5003;62175;49.416;8.690;2023-12-20T14:08:20;9;8;
43280;PMS5003;62175;49.416;8.690;2023-12-20T14:10:48;7;6;
43280;PMS5003;62175;49.416;8.690;2023-12-20T14:13:16;8;7;
43280;PMS5003;62175;49.416;8.690;2023-12-20T14:15:44;12;9;
43280;PMS5003;62175;49.416;8.690;2023-12-20T14:18:12;9;7;
43280;PMS5003;62175;49.416;8.690;2023-12-20T14:20:39;8;6;
43280;PMS5003;62175;49.416;8.690;2023-12-20T14:23:07;6;6;
43280;PMS5003;62175;49.416;8.690;2023-12-20T14:25:34;8;7;
43280;PMS5003;62175;49.416;8.690;2023-12-20T14:28:02;6;5;
43280;PMS5003;62175;49.416;8.690;2023-12-20T14:30:29;7;6;
43280;PMS5003;62175;49.416;8.690;2023-12-20T14:32:56;7;6;
43280;PMS5003;62175;49.416;8.690;2023-12-20T14:35:24;8;8;
43280;PMS5003;62175;49.416;8.690;2023-12-20T14:37:51;8;6;
43280;PMS5003;62175;49.416;8.690;2023-12-20T14:40:19;8;7;
43280;PMS5003;62175;49.416;8.690;2023-12-20T14:42:46;5;5;
43280;PMS5003;62175;49.416;8.690;2023-12-20T14:45:13;7;6;
43280;PMS5003;62175;49.416;8.690;2023-12-20T14:47:41;7;7;
43280;PMS5003;62175;49.416;8.690;2023-12-20T14:50:09;6;6;
43280;PMS5003;62175;49.416;8.690;2023-12-20T14:52:36;11;9;
43280;PMS5003;62175;49.416;8.690;2023-12-20T14:55:04;7;6;
43280;PMS5003;62175;49.416;8.690;2023-12-20T14:57:31;6;6;
43280;PMS5003;62175;49.416;8.690;2023-12-20T14:59:58;7;7;
43280;PMS5003;62175;49.416;8.690;2023-12-20T15:02:26;9;9;
43280;PMS5003;62175;49.416;8.690;2023-12-20T15:04:53;8;6;
43280;PMS5003;62175;49.416;8.690;2023-12-20T15:07:20;5;5;
43280;PMS5003;62175;49.416;8.690;2023-12-20T15:09:48;6;6;
43280;PMS5003;62175;49.416;8.690;2023-12-20T15:12:15;10;9;
43280;PMS5003;62175;49.416;8.690;2023-12-20T15:14:42;7;6;
43280;PMS5003;62175;49.416;8.690;2023-12-20T15:17:10;6;6;
43280;PMS5003;62175;49.416;8.690;2023-12-20T15:19:38;7;7;
43280;PMS5003;62175;49.416;8.690;2023-12-20T15:22:05;6;6;
43280;PMS5003;62175;49.416;8.690;2023-12-20T15:24:32;7;7;
43280;PMS5003;62175;49.416;8.690;2023-12-20T15:26:59;4;4;
43280;PMS5003;62175;49.416;8.690;2023-12-20T15:29:28;8;6;
43280;PMS5003;62175;49.416;8.690;2023-12-20T15:31:55;5;4;
43280;PMS5003;62175;49.416;8.690;2023-12-20T15:34:22;4;4;
43280;PMS5003;62175;49.416;8.690;2023-12-20T15:36:49;5;4;
43280;PMS5003;62175;49.416;8.690;2023-12-20T15:39:17;4;4;
43280;PMS5003;62175;49.416;8.690;2023-12-20T15:41:44;8;7;
43280;PMS5003;62175;49.416;8.690;2023-12-20T15:44:12;6;5;
43280;PMS5003;62175;49.416;8.690;2023-12-20T15:46:39;5;4;
43280;PMS5003;62175;49.416;8.690;2023-12-20T15:49:06;6;6;
43280;PMS5003;62175;49.416;8.690;2023-12-20T15:51:34;4;4;
43280;PMS5003;62175;49.416;8.690;2023-12-20T15:54:01;5;5;
43280;PMS5003;62175;49.416;8.690;2023-12-20T15:56:28;5;5;
43280;PMS5003;62175;49.416;8.690;2023-12-20T15:58:56;4;4;
43280;PMS5003;62175;49.416;8.690;2023-12-20T16:01:23;3;3;
43280;PMS5003;62175;49.416;8.690;2023-12-20T16:03:50;4;4;
43280;PMS5003;62175;49.416;8.690;2023-12-20T16:06:18;4;4;
43280;PMS5003;62175;49.416;8.690;2023-12-20T16:08:45;5;4;
43280;PMS5003;62175;49.416;8.690;2023-12-20T16:11:12;5;5;
43280;PMS5003;62175;49.416;8.690;2023-12-20T16:13:40;9;8;
43280;PMS5003;62175;49.416;8.690;2023-12-20T16:16:07;5;4;
43280;PMS5003;62175;49.416;8.690;2023-12-20T16:18:34;5;4;
43280;PMS5003;62175;49.416;8.690;2023-12-20T16:21:02;6;5;
43280;PMS5003;62175;49.416;8.690;2023-12-20T16:23:29;8;5;
43280;PMS5003;62175;49.416;8.690;2023-12-20T16:25:57;8;7;
43280;PMS5003;62175;49.416;8.690;2023-12-20T16:28:23;7;6;
43280;PMS5003;62175;49.416;8.690;2023-12-20T16:30:51;5;5;
43280;PMS5003;62175;49.416;8.690;2023-12-20T16:33:19;7;7;
43280;PMS5003;62175;49.416;8.690;2023-12-20T16:35:46;6;6;
43280;PMS5003;62175;49.416;8.690;2023-12-20T16:38:14;6;5;